Frontenac, Minnesota
Current Conditions -  °F | °C
As of 5:10 AM on Saturday 20 Dec 2014 (Local Time) from KRGK Reporting Station
Overcast Overcast  
Wind Chill: 24°   Ceiling: 1900
Heat Index: 30°   Visibility: 7mi
Dew Point: 25°   Wind: 6mph
Humidity: 80%   Direction: 140°SE
Pressure: 30.18"   Gusts: NA
Location:  44.51°N, 92.36°W
Report Text: KRGK 201110Z AUTO 14005KT 7SM BKN019 BKN024 OVC044 M01/M04 A3018 RMK AO2
Loading
Personal Weather Stations






























Interactive Weather Map New forecast layout! Learn more

10-Day Weather Forecast

Advertisements
Track Severe Weather on mobile